YYI weather

CLOSED Rivers Airport
Manitoba, Canada

Public forecast

Using degrees Celsius for public forecast. Weather courtesy of forecast.io.

Closest aviation weather report (METAR) to Rivers Airport

Closest report is Brandon Municipal Airport, 15.2 nm (28.2 km) ESE. Retrieved 2019/11/22 11:00 UTC (27 minutes ago):

CYBR 221100Z 26011KT 15SM FEW250 M09/M11 A2990 RMK CI2 SLP162

Closest aviation forecast (TAF) to Rivers Airport

Closest forecast is Brandon Municipal Airport, 15.2 nm (28.2 km) ESE. Retrieved 2019/11/22 06:39 UTC (5 hours ago):

TAF CYBR 220538Z 2206/2218 25012KT P6SM FEW004 TEMPO 2206/2207 5SM BR BKN004 FM220700 25015KT P6SM FEW080 FM221200 25015KT P6SM FEW240 BECMG 2214/2216 25015G25KT RMK NXT FCST BY 221200Z